createdAt,value
2019-03-17T00:03:42.257Z,3.60
2019-03-17T00:07:46.794Z,3.40
2019-03-17T00:11:51.282Z,3.10
2019-03-17T00:15:55.810Z,3.17
2019-03-17T00:20:00.378Z,3.03
2019-03-17T00:24:04.635Z,2.80
2019-03-17T00:28:09.128Z,3.37
2019-03-17T00:32:13.562Z,3.67
2019-03-17T00:36:18.156Z,3.07
2019-03-17T00:40:22.474Z,3.07
2019-03-17T00:44:26.914Z,3.10
2019-03-17T00:48:31.521Z,3.30
2019-03-17T00:52:36.040Z,3.43
2019-03-17T00:56:40.712Z,2.77
2019-03-17T01:00:45.564Z,3.00
2019-03-17T01:04:56.230Z,3.07
2019-03-17T01:08:55.919Z,3.10
2019-03-17T01:13:00.251Z,3.27
2019-03-17T01:17:04.695Z,3.30
2019-03-17T01:21:09.110Z,2.77
2019-03-17T01:25:13.608Z,3.20
2019-03-17T01:29:18.651Z,2.80
2019-03-17T01:33:22.898Z,3.03
2019-03-17T01:37:27.366Z,3.00
2019-03-17T01:41:31.767Z,3.07
2019-03-17T01:45:36.267Z,2.70
2019-03-17T01:49:40.487Z,2.90
2019-03-17T01:53:44.715Z,2.90
2019-03-17T01:57:48.962Z,2.60
2019-03-17T02:01:53.167Z,2.83
2019-03-17T02:05:57.384Z,2.50
2019-03-17T02:10:01.634Z,2.70
2019-03-17T02:14:05.939Z,2.80
2019-03-17T02:18:10.084Z,2.90
2019-03-17T02:22:14.293Z,2.30
2019-03-17T02:26:18.499Z,2.53
2019-03-17T02:30:22.808Z,2.93
2019-03-17T02:34:27.102Z,2.77
2019-03-17T02:38:31.418Z,2.83
2019-03-17T02:42:35.673Z,2.73
2019-03-17T02:46:39.927Z,3.00
2019-03-17T02:50:44.187Z,2.70
2019-03-17T02:54:48.400Z,2.93
2019-03-17T02:58:52.624Z,2.57
2019-03-17T03:02:56.838Z,2.60
2019-03-17T03:07:01.088Z,2.70
2019-03-17T03:11:05.385Z,2.50
2019-03-17T03:15:09.613Z,2.60
2019-03-17T03:19:13.851Z,2.90
2019-03-17T03:23:18.084Z,3.10
2019-03-17T03:27:22.304Z,2.80
2019-03-17T03:31:26.545Z,2.77
2019-03-17T03:35:30.757Z,2.50
2019-03-17T03:39:35.019Z,2.83
2019-03-17T03:43:39.311Z,2.97
2019-03-17T03:47:43.512Z,3.00
2019-03-17T03:51:47.741Z,3.10
2019-03-17T03:55:51.995Z,2.87
2019-03-17T03:59:56.245Z,2.90
2019-03-17T04:04:00.470Z,2.90
2019-03-17T04:08:04.676Z,2.97
2019-03-17T04:12:08.907Z,2.67
2019-03-17T04:16:13.124Z,2.80
2019-03-17T04:20:17.364Z,2.70
2019-03-17T04:24:21.590Z,2.97
2019-03-17T04:28:25.815Z,2.70
2019-03-17T04:32:30.043Z,2.97
2019-03-17T04:36:40.077Z,2.87
2019-03-17T04:40:40.140Z,2.93
2019-03-17T04:44:44.379Z,2.83
2019-03-17T04:48:48.610Z,3.13
2019-03-17T04:52:52.969Z,3.33
2019-03-17T04:56:57.223Z,3.20
2019-03-17T05:01:02.313Z,3.57
2019-03-17T05:05:06.676Z,3.67
2019-03-17T05:09:10.893Z,2.93
2019-03-17T05:13:15.135Z,4.33
2019-03-17T05:17:19.356Z,3.40
2019-03-17T05:21:23.627Z,3.10
2019-03-17T05:25:27.861Z,3.50
2019-03-17T05:29:32.055Z,3.70
2019-03-17T05:33:36.283Z,4.10
2019-03-17T05:37:40.529Z,3.77
2019-03-17T05:41:44.739Z,3.67
2019-03-17T05:45:48.968Z,3.47
2019-03-17T05:49:53.192Z,3.50
2019-03-17T05:53:57.399Z,3.80
2019-03-17T05:58:01.669Z,3.50
2019-03-17T06:02:05.897Z,3.77
2019-03-17T06:06:10.133Z,3.90
2019-03-17T06:10:14.356Z,3.70
2019-03-17T06:14:18.595Z,4.07
2019-03-17T06:18:22.807Z,4.40
2019-03-17T06:22:27.038Z,4.37
2019-03-17T06:26:31.272Z,4.33
2019-03-17T06:30:35.512Z,4.63
2019-03-17T06:34:39.715Z,4.80
2019-03-17T06:38:43.935Z,4.30
2019-03-17T06:42:48.174Z,4.73
2019-03-17T06:46:52.411Z,4.67
2019-03-17T06:50:56.654Z,4.10
2019-03-17T06:55:00.875Z,4.50
2019-03-17T06:59:05.096Z,4.23
2019-03-17T07:03:09.312Z,4.33
2019-03-17T07:07:13.535Z,5.07
2019-03-17T07:11:17.764Z,4.07
2019-03-17T07:15:21.967Z,4.13
2019-03-17T07:19:30.586Z,3.90
2019-03-17T07:23:34.853Z,3.60
2019-03-17T07:27:39.056Z,4.13
2019-03-17T07:31:43.284Z,4.00
2019-03-17T07:35:47.475Z,3.63
2019-03-17T07:39:54.568Z,3.73
2019-03-17T07:43:58.789Z,3.53
2019-03-17T07:48:03.019Z,3.37
2019-03-17T07:52:07.335Z,3.43
2019-03-17T07:56:11.575Z,3.47
2019-03-17T08:00:16.301Z,3.20
2019-03-17T08:04:21.131Z,3.60
2019-03-17T08:08:25.465Z,5.00
2019-03-17T08:12:29.700Z,3.57
2019-03-17T08:16:34.197Z,0.80
2019-03-17T08:20:38.610Z,0.43
2019-03-17T08:24:42.822Z,0.60
2019-03-17T08:28:47.044Z,0.67
2019-03-17T08:32:51.272Z,0.47
2019-03-17T08:36:55.497Z,0.60
2019-03-17T08:40:59.796Z,0.80
2019-03-17T08:45:04.034Z,0.90
2019-03-17T08:49:08.257Z,0.80
2019-03-17T08:53:12.482Z,0.63
2019-03-17T08:57:16.729Z,0.70
2019-03-17T09:01:20.935Z,0.70
2019-03-17T09:05:25.156Z,0.80
2019-03-17T09:09:29.412Z,1.57
2019-03-17T09:13:33.640Z,1.20
2019-03-17T09:17:37.869Z,1.30
2019-03-17T09:21:42.067Z,1.00
2019-03-17T09:25:46.302Z,1.30
2019-03-17T09:29:50.520Z,1.00
2019-03-17T09:33:54.727Z,1.00
2019-03-17T09:37:58.945Z,0.90
2019-03-17T09:42:03.179Z,0.87
2019-03-17T09:46:07.394Z,1.10
2019-03-17T09:50:11.712Z,0.90
2019-03-17T09:54:16.410Z,1.03
2019-03-17T09:58:20.569Z,0.97
2019-03-17T10:02:24.934Z,1.10
2019-03-17T10:06:31.900Z,1.20
2019-03-17T10:10:36.268Z,1.03
2019-03-17T10:14:59.623Z,1.40
2019-03-17T10:19:03.844Z,1.00
2019-03-17T10:23:08.066Z,1.40
2019-03-17T10:27:12.301Z,1.30
2019-03-17T10:31:16.927Z,1.30
2019-03-17T10:35:21.152Z,1.10
2019-03-17T10:39:25.447Z,1.60
2019-03-17T10:43:29.743Z,1.40
2019-03-17T10:47:33.938Z,1.30
2019-03-17T10:51:38.204Z,1.30
2019-03-17T10:55:42.682Z,1.60
2019-03-17T10:59:46.916Z,1.37
2019-03-17T11:04:10.263Z,1.17
2019-03-17T11:08:14.464Z,1.63
2019-03-17T11:12:18.699Z,1.70
2019-03-17T11:16:22.923Z,1.70
2019-03-17T11:20:27.254Z,1.57
2019-03-17T11:24:31.488Z,1.60
2019-03-17T11:28:35.705Z,1.70
2019-03-17T11:32:39.999Z,1.73
2019-03-17T11:36:44.227Z,2.10
2019-03-17T11:40:48.454Z,1.73
2019-03-17T11:44:52.670Z,1.70
2019-03-17T11:48:56.867Z,1.97
2019-03-17T11:53:01.086Z,2.03
2019-03-17T11:57:05.344Z,1.70
2019-03-17T12:01:09.562Z,1.50
2019-03-17T12:05:13.785Z,1.77
2019-03-17T12:09:28.465Z,1.73
2019-03-17T12:13:23.958Z,0.80
2019-03-17T12:17:28.262Z,0.83
2019-03-17T12:21:32.483Z,1.10
2019-03-17T12:25:36.721Z,1.30
2019-03-17T12:29:40.899Z,1.60
2019-03-17T12:33:45.127Z,1.20
2019-03-17T12:37:49.577Z,1.53
2019-03-17T12:41:53.799Z,1.27
2019-03-17T12:45:58.030Z,1.20
2019-03-17T12:50:02.243Z,1.50
2019-03-17T12:58:30.976Z,1.40
2019-03-17T13:02:35.381Z,1.20
2019-03-17T13:06:39.675Z,1.63
2019-03-17T13:10:43.904Z,1.30
2019-03-17T13:14:48.132Z,1.30
2019-03-17T13:18:52.373Z,1.23
2019-03-17T13:22:56.600Z,1.00
2019-03-17T13:27:00.824Z,1.10
2019-03-17T13:31:05.079Z,1.27
2019-03-17T13:35:09.493Z,1.17
2019-03-17T13:39:13.732Z,0.70
2019-03-17T13:43:17.957Z,1.47
2019-03-17T13:47:22.187Z,0.73
2019-03-17T13:51:26.425Z,0.87
2019-03-17T13:55:30.642Z,0.70
2019-03-17T13:59:53.993Z,0.80
2019-03-17T14:03:58.216Z,1.03
2019-03-17T14:08:02.447Z,1.33
2019-03-17T14:12:06.693Z,1.03
2019-03-17T14:16:10.904Z,0.90
2019-03-17T14:20:16.520Z,1.10
2019-03-17T14:24:20.756Z,1.60
2019-03-17T14:28:24.993Z,1.30
2019-03-17T14:32:29.220Z,0.83
2019-03-17T14:36:33.876Z,0.60
2019-03-17T14:40:38.393Z,1.07
2019-03-17T14:44:42.620Z,0.63
2019-03-17T14:48:46.893Z,0.67
2019-03-17T14:52:51.104Z,0.63
2019-03-17T14:56:55.353Z,0.80
2019-03-17T15:00:59.684Z,1.17
2019-03-17T15:05:04.127Z,0.90
2019-03-17T15:09:13.038Z,0.80
2019-03-17T15:13:18.535Z,0.90
2019-03-17T15:17:24.423Z,1.10
2019-03-17T15:21:29.779Z,0.70
2019-03-17T15:25:35.695Z,0.90
2019-03-17T15:29:39.962Z,1.17
2019-03-17T15:33:44.196Z,1.33
2019-03-17T15:37:49.167Z,1.00
2019-03-17T15:41:53.326Z,1.63
2019-03-17T15:45:57.535Z,1.20
2019-03-17T15:50:01.769Z,1.20
2019-03-17T15:54:06.001Z,1.40
2019-03-17T15:58:10.238Z,1.17
2019-03-17T16:02:14.508Z,1.20
2019-03-17T16:06:19.006Z,0.83
2019-03-17T16:10:23.388Z,1.10
2019-03-17T16:14:27.909Z,1.23
2019-03-17T16:18:32.084Z,1.40
2019-03-17T16:22:36.403Z,1.20
2019-03-17T16:26:40.616Z,1.43
2019-03-17T16:30:45.775Z,1.30
2019-03-17T16:34:50.001Z,1.30
2019-03-17T16:38:54.221Z,1.90
2019-03-17T16:43:17.651Z,1.30
2019-03-17T16:47:21.848Z,1.10
2019-03-17T16:51:26.061Z,1.10
2019-03-17T16:55:33.657Z,1.20
2019-03-17T16:59:39.087Z,1.37
2019-03-17T17:03:44.538Z,1.00
2019-03-17T17:07:50.239Z,1.50
2019-03-17T17:11:57.479Z,1.23
2019-03-17T17:16:02.147Z,1.70
2019-03-17T17:20:07.521Z,1.33
2019-03-17T17:24:11.911Z,1.50
2019-03-17T17:28:17.190Z,1.43
2019-03-17T17:32:22.056Z,1.47
2019-03-17T17:36:27.467Z,1.00
2019-03-17T17:40:31.837Z,1.80
2019-03-17T17:44:38.609Z,1.20
2019-03-17T17:48:42.890Z,1.57
2019-03-17T17:52:47.581Z,1.37
2019-03-17T17:56:51.944Z,1.45
2019-03-17T18:00:57.379Z,2.00
2019-03-17T18:05:05.160Z,1.70
2019-03-17T18:09:11.035Z,1.50
2019-03-17T18:13:16.966Z,1.50
2019-03-17T18:17:23.067Z,1.83
2019-03-17T18:21:30.164Z,1.50
2019-03-17T18:25:36.054Z,1.70
2019-03-17T18:29:42.085Z,1.77
2019-03-17T18:33:47.663Z,1.63
2019-03-17T18:38:41.300Z,1.53
2019-03-17T18:42:47.972Z,1.50
2019-03-17T18:46:53.566Z,1.93
2019-03-17T18:50:57.935Z,2.00
2019-03-17T18:55:02.302Z,1.60
2019-03-17T18:59:06.714Z,1.87
2019-03-17T19:03:10.954Z,1.90
2019-03-17T19:07:15.215Z,1.63
2019-03-17T19:11:19.445Z,1.63
2019-03-17T19:15:23.774Z,1.70
2019-03-17T19:19:29.102Z,1.70
2019-03-17T19:23:35.450Z,2.97
2019-03-17T19:27:41.123Z,2.30
2019-03-17T19:31:48.700Z,2.10
2019-03-17T19:35:55.341Z,2.33
2019-03-17T19:40:01.436Z,2.27
2019-03-17T19:44:07.482Z,2.60
2019-03-17T19:48:13.494Z,2.00
2019-03-17T19:52:20.222Z,2.47
2019-03-17T19:56:24.556Z,1.90
2019-03-17T20:00:28.731Z,2.27
2019-03-17T20:04:35.562Z,2.10
2019-03-17T20:08:38.977Z,2.60
2019-03-17T20:12:47.906Z,2.47
2019-03-17T20:16:52.569Z,2.80
2019-03-17T20:20:57.219Z,2.83
2019-03-17T20:25:02.058Z,2.77
2019-03-17T20:29:07.134Z,3.17
2019-03-17T20:33:12.281Z,3.30
2019-03-17T20:37:17.362Z,3.33
2019-03-17T20:41:23.137Z,3.07
2019-03-17T20:45:27.923Z,2.67
2019-03-17T20:49:32.576Z,2.80
2019-03-17T20:53:38.317Z,2.70
2019-03-17T20:57:43.651Z,2.83
2019-03-17T21:01:48.626Z,2.07
2019-03-17T21:05:53.448Z,2.17
2019-03-17T21:09:59.643Z,2.83
2019-03-17T21:14:04.383Z,2.40
2019-03-17T21:18:09.849Z,2.33
2019-03-17T21:22:14.125Z,2.33
2019-03-17T21:26:18.814Z,2.40
2019-03-17T21:30:23.096Z,2.37
2019-03-17T21:34:27.992Z,2.47
2019-03-17T21:38:33.709Z,2.10
2019-03-17T21:42:37.944Z,1.90
2019-03-17T21:46:44.048Z,1.93
2019-03-17T21:50:48.295Z,2.20
2019-03-17T21:54:53.171Z,2.50
2019-03-17T21:58:57.563Z,2.20
2019-03-17T22:03:01.835Z,2.57
2019-03-17T22:07:08.783Z,2.83
2019-03-17T22:11:13.836Z,2.40
2019-03-17T22:15:19.087Z,2.30
2019-03-17T22:19:23.866Z,2.27
2019-03-17T22:23:28.640Z,2.57
2019-03-17T22:27:33.291Z,2.10
2019-03-17T22:31:38.482Z,1.87
2019-03-17T22:35:42.855Z,1.83
2019-03-17T22:39:47.082Z,2.10
2019-03-17T22:43:51.670Z,2.27
2019-03-17T22:47:55.879Z,1.90
2019-03-17T22:52:00.154Z,2.10
2019-03-17T22:56:04.434Z,1.60
2019-03-17T23:00:11.836Z,2.40
2019-03-17T23:04:16.144Z,2.60
2019-03-17T23:08:20.343Z,2.43
2019-03-17T23:12:24.683Z,2.27
2019-03-17T23:16:29.412Z,2.27
2019-03-17T23:20:34.966Z,2.30
2019-03-17T23:24:39.168Z,2.73
2019-03-17T23:28:43.375Z,2.30
2019-03-17T23:32:49.294Z,2.63
2019-03-17T23:36:53.491Z,2.83
2019-03-17T23:40:57.776Z,2.67
2019-03-17T23:45:02.011Z,2.23
2019-03-17T23:49:06.236Z,2.63
2019-03-17T23:53:10.426Z,3.33
2019-03-17T23:57:14.694Z,3.40
